createdAt,value
2019-03-28T00:00:31.196Z,41.58
2019-03-28T00:03:02.288Z,41.80
2019-03-28T00:05:33.349Z,41.80
2019-03-28T00:08:04.388Z,42.33
2019-03-28T00:10:35.443Z,42.47
2019-03-28T00:13:06.443Z,42.38
2019-03-28T00:15:37.434Z,42.32
2019-03-28T00:18:08.532Z,42.38
2019-03-28T00:20:39.518Z,42.57
2019-03-28T00:23:27.814Z,42.82
2019-03-28T00:25:58.852Z,42.80
2019-03-28T00:28:29.867Z,42.93
2019-03-28T00:31:01.023Z,43.31
2019-03-28T00:33:32.066Z,43.78
2019-03-28T00:36:03.056Z,43.79
2019-03-28T00:38:34.087Z,43.69
2019-03-28T00:41:05.282Z,43.50
2019-03-28T00:43:36.325Z,43.88
2019-03-28T00:46:07.333Z,44.91
2019-03-28T00:48:38.340Z,45.18
2019-03-28T00:51:09.324Z,45.42
2019-03-28T00:53:40.316Z,45.70
2019-03-28T00:56:11.316Z,46.98
2019-03-28T00:58:42.396Z,48.71
2019-03-28T01:01:13.430Z,50.92
2019-03-28T01:03:44.434Z,51.15
2019-03-28T01:06:15.471Z,51.64
2019-03-28T01:08:46.461Z,53.02
2019-03-28T01:11:17.595Z,53.12
2019-03-28T01:13:48.588Z,52.43
2019-03-28T01:16:20.132Z,53.00
2019-03-28T01:18:51.161Z,53.08
2019-03-28T01:21:22.165Z,53.52
2019-03-28T01:23:53.210Z,53.92
2019-03-28T01:26:24.200Z,53.58
2019-03-28T01:28:55.230Z,53.28
2019-03-28T01:31:26.232Z,53.45
2019-03-28T01:33:57.273Z,53.98
2019-03-28T01:36:28.326Z,53.40
2019-03-28T01:38:59.367Z,53.74
2019-03-28T01:41:30.381Z,54.10
2019-03-28T01:44:01.430Z,54.50
2019-03-28T01:46:32.477Z,55.22
2019-03-28T01:49:03.793Z,55.11
2019-03-28T01:51:34.986Z,56.27
2019-03-28T01:54:06.096Z,56.47
2019-03-28T01:56:37.137Z,56.43
2019-03-28T01:59:08.264Z,56.11
2019-03-28T02:01:39.267Z,56.32
2019-03-28T02:04:10.283Z,56.50
2019-03-28T02:06:41.318Z,56.73
2019-03-28T02:09:12.359Z,56.89
2019-03-28T02:11:43.358Z,56.73
2019-03-28T02:14:14.394Z,56.42
2019-03-28T02:16:45.377Z,56.54
2019-03-28T02:19:16.412Z,56.99
2019-03-28T02:21:47.406Z,56.83
2019-03-28T02:24:18.440Z,57.00
2019-03-28T02:26:49.443Z,57.23
2019-03-28T02:29:20.480Z,57.50
2019-03-28T02:31:51.485Z,57.17
2019-03-28T02:34:22.538Z,57.63
2019-03-28T02:36:53.547Z,57.37
2019-03-28T02:39:24.783Z,57.31
2019-03-28T02:41:55.891Z,57.36
2019-03-28T02:44:26.919Z,57.20
2019-03-28T02:46:57.956Z,57.45
2019-03-28T02:49:29.035Z,57.36
2019-03-28T02:52:00.039Z,57.17
2019-03-28T02:54:31.669Z,57.21
2019-03-28T02:57:02.829Z,57.29
2019-03-28T02:59:33.882Z,57.27
2019-03-28T03:02:04.961Z,57.20
2019-03-28T03:04:35.958Z,57.17
2019-03-28T03:07:07.020Z,57.04
2019-03-28T03:09:38.023Z,57.69
2019-03-28T03:12:09.070Z,57.40
2019-03-28T03:14:40.061Z,57.33
2019-03-28T03:17:11.107Z,57.45
2019-03-28T03:19:42.103Z,57.60
2019-03-28T03:22:13.136Z,58.02
2019-03-28T03:24:44.158Z,57.83
2019-03-28T03:27:15.286Z,57.69
2019-03-28T03:29:46.266Z,58.09
2019-03-28T03:32:17.322Z,57.81
2019-03-28T03:34:48.297Z,57.91
2019-03-28T03:37:19.327Z,57.51
2019-03-28T03:39:50.396Z,57.44
2019-03-28T03:42:21.517Z,56.92
2019-03-28T03:44:52.636Z,56.82
2019-03-28T03:47:23.688Z,56.76
2019-03-28T03:49:54.663Z,56.73
2019-03-28T03:52:25.681Z,56.44
2019-03-28T03:54:56.662Z,56.39
2019-03-28T03:57:27.682Z,56.29
2019-03-28T03:59:58.665Z,56.11
2019-03-28T04:02:29.693Z,56.02
2019-03-28T04:05:00.681Z,55.72
2019-03-28T04:07:31.685Z,55.74
2019-03-28T04:10:02.756Z,55.66
2019-03-28T04:12:33.791Z,55.43
2019-03-28T04:15:04.863Z,55.56
2019-03-28T04:17:35.864Z,55.23
2019-03-28T04:20:07.237Z,55.45
2019-03-28T04:22:38.268Z,55.37
2019-03-28T04:25:09.516Z,55.09
2019-03-28T04:27:40.515Z,55.02
2019-03-28T04:30:11.846Z,54.91
2019-03-28T04:32:42.823Z,54.92
2019-03-28T04:35:13.849Z,54.73
2019-03-28T04:37:44.825Z,54.77
2019-03-28T04:40:16.032Z,54.60
2019-03-28T04:42:47.152Z,54.28
2019-03-28T04:45:18.180Z,53.92
2019-03-28T04:47:49.207Z,53.68
2019-03-28T04:50:20.199Z,52.89
2019-03-28T04:52:52.934Z,52.79
2019-03-28T04:55:24.113Z,52.55
2019-03-28T04:57:55.485Z,52.01
2019-03-28T05:00:26.772Z,51.47
2019-03-28T05:02:57.832Z,51.23
2019-03-28T05:05:28.862Z,50.98
2019-03-28T05:07:59.894Z,51.25
2019-03-28T05:10:33.137Z,51.09
2019-03-28T05:13:03.607Z,50.75
2019-03-28T05:15:34.650Z,50.67
2019-03-28T05:18:06.375Z,50.63
2019-03-28T05:20:37.408Z,50.93
2019-03-28T05:23:08.440Z,50.90
2019-03-28T05:25:39.468Z,50.94
2019-03-28T05:28:10.507Z,51.20
2019-03-28T05:30:41.496Z,51.37
2019-03-28T05:33:12.489Z,51.47
2019-03-28T05:35:43.520Z,51.54
2019-03-28T05:38:14.495Z,51.74
2019-03-28T05:40:45.527Z,51.53
2019-03-28T05:43:16.624Z,51.58
2019-03-28T05:45:47.746Z,50.95
2019-03-28T05:48:18.800Z,50.71
2019-03-28T05:50:49.793Z,50.77
2019-03-28T05:53:20.802Z,50.83
2019-03-28T05:55:51.942Z,50.85
2019-03-28T05:58:23.171Z,50.89
2019-03-28T06:00:54.255Z,50.70
2019-03-28T06:03:25.496Z,50.76
2019-03-28T06:05:56.555Z,51.06
2019-03-28T06:08:28.257Z,50.90
2019-03-28T06:10:59.271Z,50.85
2019-03-28T06:13:30.294Z,50.74
2019-03-28T06:16:01.345Z,50.48
2019-03-28T06:18:32.388Z,50.62
2019-03-28T06:21:03.440Z,50.44
2019-03-28T06:23:34.483Z,50.35
2019-03-28T06:26:05.578Z,50.14
2019-03-28T06:28:36.612Z,50.33
2019-03-28T06:31:07.651Z,50.10
2019-03-28T06:33:38.712Z,50.24
2019-03-28T06:36:09.729Z,50.45
2019-03-28T06:38:40.809Z,50.08
2019-03-28T06:41:11.863Z,50.20
2019-03-28T06:43:42.989Z,50.20
2019-03-28T06:46:14.022Z,50.35
2019-03-28T06:48:45.096Z,50.71
2019-03-28T06:51:16.129Z,51.00
2019-03-28T06:53:47.147Z,50.74
2019-03-28T06:56:18.188Z,50.53
2019-03-28T06:58:49.206Z,50.69
2019-03-28T07:01:20.221Z,50.75
2019-03-28T07:03:51.278Z,50.50
2019-03-28T07:06:22.332Z,49.84
2019-03-28T07:08:53.323Z,50.00
2019-03-28T07:11:24.339Z,50.08
2019-03-28T07:13:55.366Z,50.06
2019-03-28T07:16:28.647Z,49.35
2019-03-28T07:18:59.649Z,49.18
2019-03-28T07:21:30.755Z,48.72
2019-03-28T07:24:01.777Z,48.05
2019-03-28T07:26:35.100Z,47.96
2019-03-28T07:29:06.155Z,47.57
2019-03-28T07:31:37.322Z,46.83
2019-03-28T07:34:08.343Z,46.61
2019-03-28T07:36:39.518Z,46.37
2019-03-28T07:39:10.514Z,46.18
2019-03-28T07:41:41.546Z,46.58
2019-03-28T07:44:12.610Z,46.22
2019-03-28T07:46:43.704Z,45.88
2019-03-28T07:49:14.729Z,46.06
2019-03-28T07:51:45.728Z,45.83
2019-03-28T07:54:16.796Z,45.67
2019-03-28T07:56:47.788Z,45.37
2019-03-28T07:59:18.871Z,44.58
2019-03-28T08:01:49.897Z,44.41
2019-03-28T08:04:20.932Z,44.10
2019-03-28T08:06:52.096Z,44.05
2019-03-28T08:09:35.759Z,43.67
2019-03-28T08:11:55.861Z,42.87
2019-03-28T08:14:26.855Z,43.01
2019-03-28T08:16:57.888Z,42.86
2019-03-28T08:19:28.899Z,42.79
2019-03-28T08:22:00.136Z,43.20
2019-03-28T08:24:31.220Z,43.39
2019-03-28T08:27:02.300Z,43.06
2019-03-28T08:29:33.421Z,42.84
2019-03-28T08:32:07.389Z,42.62
2019-03-28T08:34:38.578Z,42.79
2019-03-28T08:37:09.844Z,42.29
2019-03-28T08:39:44.431Z,42.09
2019-03-28T08:42:13.887Z,42.05
2019-03-28T08:44:44.988Z,42.06
2019-03-28T08:47:16.021Z,41.95
2019-03-28T08:49:47.068Z,42.35
2019-03-28T08:52:18.127Z,42.34
2019-03-28T08:54:49.144Z,42.53
2019-03-28T08:57:20.145Z,42.12
2019-03-28T08:59:51.214Z,41.44
2019-03-28T09:02:22.440Z,41.74
2019-03-28T09:04:53.542Z,41.75
2019-03-28T09:07:24.645Z,41.68
2019-03-28T09:09:55.640Z,40.89
2019-03-28T09:12:26.725Z,40.36
2019-03-28T09:14:57.727Z,40.18
2019-03-28T09:17:28.820Z,40.34
2019-03-28T09:19:59.909Z,40.24
2019-03-28T09:22:30.945Z,39.86
2019-03-28T09:25:01.954Z,39.07
2019-03-28T09:27:32.992Z,39.12
2019-03-28T09:30:04.164Z,38.78
2019-03-28T09:32:35.537Z,38.89
2019-03-28T09:35:07.377Z,39.07
2019-03-28T09:37:38.365Z,39.21
2019-03-28T09:40:09.681Z,39.55
2019-03-28T09:42:40.786Z,39.19
2019-03-28T09:45:12.048Z,39.45
2019-03-28T09:47:43.085Z,39.92
2019-03-28T09:50:14.342Z,39.60
2019-03-28T09:52:45.515Z,39.72
2019-03-28T09:55:18.899Z,39.80
2019-03-28T09:57:49.284Z,39.91
2019-03-28T10:00:21.462Z,39.04
2019-03-28T10:02:52.450Z,38.45
2019-03-28T10:05:23.498Z,38.07
2019-03-28T10:07:54.556Z,38.08
2019-03-28T10:10:25.611Z,38.06
2019-03-28T10:12:56.650Z,37.80
2019-03-28T10:15:27.696Z,37.60
2019-03-28T10:17:58.743Z,37.11
2019-03-28T10:20:29.790Z,38.00
2019-03-28T10:23:00.872Z,37.29
2019-03-28T10:25:31.919Z,37.01
2019-03-28T10:28:02.909Z,36.54
2019-03-28T10:30:40.735Z,36.72
2019-03-28T10:33:11.844Z,35.44
2019-03-28T10:35:42.862Z,36.20
2019-03-28T10:38:13.916Z,36.20
2019-03-28T10:40:44.957Z,35.74
2019-03-28T10:43:15.981Z,35.47
2019-03-28T10:45:47.125Z,35.56
2019-03-28T10:48:18.197Z,34.82
2019-03-28T10:50:49.245Z,34.21
2019-03-28T10:53:20.290Z,34.00
2019-03-28T10:55:51.304Z,33.95
2019-03-28T10:58:22.355Z,34.34
2019-03-28T11:00:54.910Z,33.70
2019-03-28T11:03:26.126Z,33.39
2019-03-28T11:05:57.124Z,33.19
2019-03-28T11:08:28.127Z,33.21
2019-03-28T11:10:59.252Z,32.98
2019-03-28T11:13:30.316Z,32.70
2019-03-28T11:16:01.806Z,32.75
2019-03-28T11:18:32.817Z,32.73
2019-03-28T11:21:03.869Z,33.00
2019-03-28T11:23:34.924Z,32.66
2019-03-28T11:26:05.957Z,32.56
2019-03-28T11:28:36.966Z,32.59
2019-03-28T11:31:08.031Z,32.05
2019-03-28T11:33:39.038Z,31.22
2019-03-28T11:36:10.254Z,31.29
2019-03-28T11:38:41.298Z,31.84
2019-03-28T11:41:12.470Z,31.41
2019-03-28T11:43:43.582Z,31.21
2019-03-28T11:46:14.592Z,30.70
2019-03-28T11:48:45.649Z,31.34
2019-03-28T11:51:16.744Z,31.26
2019-03-28T11:53:47.785Z,30.83
2019-03-28T11:56:19.042Z,30.63
2019-03-28T11:58:50.094Z,30.67
2019-03-28T12:01:21.132Z,30.32
2019-03-28T12:03:52.180Z,30.14
2019-03-28T12:06:23.373Z,30.36
2019-03-28T12:08:55.921Z,30.14
2019-03-28T12:11:27.395Z,30.45
2019-03-28T12:13:59.758Z,30.11
2019-03-28T12:16:30.804Z,30.47
2019-03-28T12:19:01.842Z,29.26
2019-03-28T12:21:32.880Z,29.65
2019-03-28T12:24:03.880Z,29.86
2019-03-28T12:26:34.973Z,29.79
2019-03-28T12:29:06.131Z,29.70
2019-03-28T12:31:37.130Z,29.47
2019-03-28T12:34:08.190Z,29.67
2019-03-28T12:36:39.199Z,29.51
2019-03-28T12:39:10.224Z,29.81
2019-03-28T12:41:41.285Z,29.97
2019-03-28T12:44:12.327Z,29.95
2019-03-28T12:46:43.441Z,29.82
2019-03-28T12:49:14.570Z,29.10
2019-03-28T12:51:45.604Z,29.12
2019-03-28T12:54:16.649Z,29.26
2019-03-28T12:56:47.655Z,29.02
2019-03-28T12:59:18.808Z,29.17
2019-03-28T13:01:49.800Z,29.37
2019-03-28T13:04:20.821Z,29.86
2019-03-28T13:06:51.864Z,29.56
2019-03-28T13:09:23.845Z,29.32
2019-03-28T13:11:54.930Z,28.98
2019-03-28T13:14:26.079Z,28.16
2019-03-28T13:16:57.677Z,27.57
2019-03-28T13:19:28.799Z,27.93
2019-03-28T13:21:59.843Z,27.89
2019-03-28T13:24:30.986Z,27.74
2019-03-28T13:27:03.108Z,27.70
2019-03-28T13:29:34.109Z,27.91
2019-03-28T13:32:05.126Z,27.96
2019-03-28T13:34:36.122Z,27.99
2019-03-28T13:37:07.160Z,27.98
2019-03-28T13:39:38.179Z,27.17
2019-03-28T13:42:09.234Z,27.13
2019-03-28T13:44:40.312Z,27.23
2019-03-28T13:47:11.302Z,27.16
2019-03-28T13:49:42.378Z,27.22
2019-03-28T13:52:13.440Z,27.28
2019-03-28T13:54:44.483Z,27.22
2019-03-28T13:57:15.549Z,27.05
2019-03-28T13:59:46.544Z,27.08
2019-03-28T14:02:17.594Z,27.02
2019-03-28T14:04:48.684Z,26.66
2019-03-28T14:07:19.857Z,26.75
2019-03-28T14:09:50.854Z,26.46
2019-03-28T14:12:23.465Z,26.84
2019-03-28T14:14:54.572Z,26.48
2019-03-28T14:17:25.672Z,26.58
2019-03-28T14:19:56.777Z,26.60
2019-03-28T14:22:27.849Z,26.22
2019-03-28T14:24:58.842Z,26.21
2019-03-28T14:27:29.888Z,26.25
2019-03-28T14:30:00.956Z,26.36
2019-03-28T14:32:33.160Z,26.36
2019-03-28T14:35:05.212Z,26.12
2019-03-28T14:37:36.276Z,26.20
2019-03-28T14:40:08.381Z,25.88
2019-03-28T14:42:40.724Z,26.13
2019-03-28T14:45:12.936Z,25.97
2019-03-28T14:47:43.948Z,26.03
2019-03-28T14:50:15.496Z,25.96
2019-03-28T14:52:46.521Z,25.81
2019-03-28T14:55:17.572Z,26.06
2019-03-28T14:57:48.844Z,26.11
2019-03-28T15:00:36.179Z,26.27
2019-03-28T15:03:07.288Z,26.15
2019-03-28T15:05:38.352Z,25.83
2019-03-28T15:08:09.509Z,25.64
2019-03-28T15:10:40.638Z,25.60
2019-03-28T15:13:11.852Z,25.26
2019-03-28T15:15:43.456Z,25.43
2019-03-28T15:18:14.585Z,25.44
2019-03-28T15:20:45.648Z,25.50
2019-03-28T15:23:16.691Z,25.70
2019-03-28T15:25:47.726Z,25.97
2019-03-28T15:28:18.830Z,26.03
2019-03-28T15:30:49.929Z,26.14
2019-03-28T15:33:20.995Z,26.17
2019-03-28T15:35:51.992Z,25.80
2019-03-28T15:38:23.035Z,25.55
2019-03-28T15:40:54.125Z,25.79
2019-03-28T15:43:25.211Z,25.70
2019-03-28T15:45:56.292Z,25.88
2019-03-28T15:48:27.341Z,25.90
2019-03-28T15:50:58.390Z,25.90
2019-03-28T15:53:29.451Z,26.06
2019-03-28T15:56:00.441Z,26.04
2019-03-28T15:58:31.485Z,26.07
2019-03-28T16:01:02.479Z,26.12
2019-03-28T16:03:33.524Z,26.18
2019-03-28T16:06:04.620Z,26.25
2019-03-28T16:08:35.647Z,26.27
2019-03-28T16:11:06.740Z,26.46
2019-03-28T16:13:37.865Z,26.50
2019-03-28T16:16:08.890Z,26.43
2019-03-28T16:18:39.867Z,26.51
2019-03-28T16:21:10.906Z,26.53
2019-03-28T16:23:41.895Z,26.51
2019-03-28T16:26:13.028Z,26.41
2019-03-28T16:28:44.025Z,26.60
2019-03-28T16:31:15.116Z,26.72
2019-03-28T16:33:46.113Z,26.79
2019-03-28T16:36:17.091Z,26.93
2019-03-28T16:38:48.127Z,27.03
2019-03-28T16:41:19.261Z,27.02
2019-03-28T16:43:50.292Z,27.45
2019-03-28T16:46:21.326Z,27.52
2019-03-28T16:48:52.351Z,27.82
2019-03-28T16:51:23.341Z,28.00
2019-03-28T16:53:54.473Z,28.24
2019-03-28T16:56:25.606Z,28.42
2019-03-28T16:58:56.597Z,28.60
2019-03-28T17:01:27.724Z,28.77
2019-03-28T17:03:58.748Z,28.94
2019-03-28T17:06:29.978Z,29.11
2019-03-28T17:09:01.953Z,29.28
2019-03-28T17:11:32.985Z,29.51
2019-03-28T17:14:04.188Z,29.79
2019-03-28T17:16:35.185Z,29.80
2019-03-28T17:19:06.412Z,29.80
2019-03-28T17:21:40.493Z,29.94
2019-03-28T17:24:11.550Z,30.14
2019-03-28T17:26:42.533Z,30.07
2019-03-28T17:29:13.559Z,30.25
2019-03-28T17:31:45.048Z,30.39
2019-03-28T17:34:16.253Z,30.45
2019-03-28T17:36:47.400Z,30.67
2019-03-28T17:39:18.389Z,31.12
2019-03-28T17:41:49.431Z,31.60
2019-03-28T17:44:20.425Z,31.83
2019-03-28T17:46:51.456Z,32.23
2019-03-28T17:49:22.490Z,32.23
2019-03-28T17:51:53.559Z,32.25
2019-03-28T17:54:24.562Z,32.46
2019-03-28T17:56:55.585Z,32.71
2019-03-28T17:59:26.570Z,32.89
2019-03-28T18:01:57.703Z,32.99
2019-03-28T18:04:28.737Z,33.07
2019-03-28T18:07:01.156Z,33.33
2019-03-28T18:09:32.569Z,33.85
2019-03-28T18:12:03.562Z,33.88
2019-03-28T18:14:34.595Z,34.05
2019-03-28T18:17:05.592Z,33.96
2019-03-28T18:19:36.619Z,34.27
2019-03-28T18:22:07.618Z,34.33
2019-03-28T18:24:38.613Z,34.62
2019-03-28T18:27:09.675Z,34.68
2019-03-28T18:29:40.710Z,34.77
2019-03-28T18:32:11.716Z,34.62
2019-03-28T18:34:42.726Z,34.78
2019-03-28T18:37:13.778Z,35.41
2019-03-28T18:39:44.778Z,35.53
2019-03-28T18:42:15.818Z,35.71
2019-03-28T18:44:46.857Z,35.79
2019-03-28T18:47:17.995Z,36.07
2019-03-28T18:49:49.117Z,36.29
2019-03-28T18:52:20.160Z,36.34
2019-03-28T18:54:51.211Z,36.55
2019-03-28T18:57:22.196Z,36.51
2019-03-28T18:59:53.218Z,36.44
2019-03-28T19:02:24.261Z,36.46
2019-03-28T19:04:55.914Z,36.53
2019-03-28T19:07:27.596Z,36.60
2019-03-28T19:09:58.630Z,36.97
2019-03-28T19:12:29.681Z,36.57
2019-03-28T19:15:00.678Z,36.79
2019-03-28T19:17:31.701Z,36.90
2019-03-28T19:20:02.703Z,37.01
2019-03-28T19:22:33.797Z,37.06
2019-03-28T19:25:05.205Z,37.25
2019-03-28T19:27:36.315Z,37.23
2019-03-28T19:30:09.618Z,37.75
2019-03-28T19:32:40.629Z,37.41
2019-03-28T19:35:12.040Z,37.59
2019-03-28T19:37:43.479Z,37.66
2019-03-28T19:40:14.994Z,37.34
2019-03-28T19:42:46.034Z,37.18
2019-03-28T19:45:22.929Z,36.98
2019-03-28T19:47:54.255Z,36.81
2019-03-28T19:50:34.217Z,36.79
2019-03-28T19:53:05.886Z,36.82
2019-03-28T19:55:39.676Z,36.51
2019-03-28T19:58:13.211Z,36.51
2019-03-28T20:00:43.841Z,36.37
2019-03-28T20:03:15.171Z,36.44
2019-03-28T20:05:48.449Z,36.63
2019-03-28T20:08:19.071Z,36.85
2019-03-28T20:10:50.238Z,36.95
2019-03-28T20:13:21.235Z,37.05
2019-03-28T20:15:52.264Z,37.28
2019-03-28T20:18:23.338Z,37.23
2019-03-28T20:20:55.779Z,37.28
2019-03-28T20:23:26.872Z,37.54
2019-03-28T20:25:58.892Z,37.55
2019-03-28T20:28:30.081Z,37.81
2019-03-28T20:31:01.123Z,37.84
2019-03-28T20:33:32.106Z,37.77
2019-03-28T20:36:29.995Z,37.58
2019-03-28T20:38:35.922Z,37.58
2019-03-28T20:41:06.949Z,37.66
2019-03-28T20:43:38.086Z,37.72
2019-03-28T20:46:09.075Z,37.84
2019-03-28T20:48:40.105Z,37.81
2019-03-28T20:51:11.083Z,38.05
2019-03-28T20:53:42.098Z,38.15
2019-03-28T20:56:13.099Z,38.33
2019-03-28T20:58:44.124Z,38.53
2019-03-28T21:01:15.203Z,38.61
2019-03-28T21:03:49.422Z,38.68
2019-03-28T21:06:19.619Z,38.95
2019-03-28T21:08:50.793Z,39.29
2019-03-28T21:11:21.863Z,39.33
2019-03-28T21:13:52.848Z,39.58
2019-03-28T21:16:23.893Z,39.59
2019-03-28T21:18:54.930Z,39.75
2019-03-28T21:21:25.912Z,39.72
2019-03-28T21:23:56.903Z,39.89
2019-03-28T21:26:27.941Z,40.00
2019-03-28T21:28:59.006Z,39.96
2019-03-28T21:31:30.041Z,40.06
2019-03-28T21:34:01.064Z,40.27
2019-03-28T21:36:32.382Z,40.24
2019-03-28T21:39:04.773Z,40.36
2019-03-28T21:41:35.776Z,40.35
2019-03-28T21:44:06.807Z,40.47
2019-03-28T21:46:37.779Z,40.46
2019-03-28T21:49:09.119Z,40.67
2019-03-28T21:51:40.081Z,40.85
2019-03-28T21:54:11.098Z,41.05
2019-03-28T21:56:42.132Z,41.06
2019-03-28T21:59:13.151Z,41.36
2019-03-28T22:01:44.213Z,41.27
2019-03-28T22:04:15.172Z,41.24
2019-03-28T22:06:46.198Z,41.21
2019-03-28T22:09:17.175Z,41.07
2019-03-28T22:11:48.197Z,41.29
2019-03-28T22:14:19.199Z,41.18
2019-03-28T22:16:50.211Z,41.37
2019-03-28T22:19:21.230Z,41.67
2019-03-28T22:21:52.224Z,41.63
2019-03-28T22:24:23.240Z,41.89
2019-03-28T22:26:54.378Z,42.10
2019-03-28T22:29:25.395Z,42.05
2019-03-28T22:31:56.937Z,42.17
2019-03-28T22:34:28.158Z,42.22
2019-03-28T22:37:00.844Z,42.24
2019-03-28T22:39:31.862Z,42.57
2019-03-28T22:42:02.849Z,42.57
2019-03-28T22:44:34.138Z,42.91
2019-03-28T22:47:05.943Z,42.91
2019-03-28T22:49:37.090Z,42.72
2019-03-28T22:52:08.070Z,42.72
2019-03-28T22:54:39.091Z,43.67
2019-03-28T22:57:10.112Z,43.08
2019-03-28T22:59:41.098Z,43.47
2019-03-28T23:02:12.333Z,43.37
2019-03-28T23:04:43.319Z,43.43
2019-03-28T23:07:14.578Z,43.73
2019-03-28T23:09:45.733Z,43.65
2019-03-28T23:12:16.775Z,43.82
2019-03-28T23:14:47.775Z,43.97
2019-03-28T23:17:18.829Z,44.27
2019-03-28T23:19:49.832Z,44.50
2019-03-28T23:22:20.875Z,44.71
2019-03-28T23:24:51.879Z,45.58
2019-03-28T23:27:22.932Z,46.00
2019-03-28T23:29:53.949Z,46.06
2019-03-28T23:32:24.998Z,45.88
2019-03-28T23:34:56.046Z,46.77
2019-03-28T23:37:27.143Z,46.55
2019-03-28T23:39:58.151Z,46.29
2019-03-28T23:42:29.163Z,46.45
2019-03-28T23:45:00.428Z,46.43
2019-03-28T23:47:31.447Z,46.06
2019-03-28T23:50:02.487Z,46.17
2019-03-28T23:52:33.490Z,46.05
2019-03-28T23:55:04.564Z,46.04
2019-03-28T23:57:35.590Z,45.87
